GBOYI EGCM-EGNT
Flight info
| Callsign | GBOYI |
|---|---|
| Flight time | 0h 47m |
| Altitude | 9000 |
| Route | RIMTO |
| Aircraft | PA24/L-SDGRY/S |
Departure
| Time | 2026-04-25 16:55 |
|---|---|
| Airport | Leeds East Airport (EGCM) |
Arrival
| Time | 2026-04-25 17:42 |
|---|---|
| Airport | Newcastle International Airport (EGNT) |
| Time | Latitude | Longitude | Altitude | Speed | Heading |
|---|---|---|---|---|---|
| 2026-04-25 16:50 | 53.83418 | -1.20206 | 32 ft | 0 kts | 347° |
| 2026-04-25 16:53 | 53.83428 | -1.20213 | 31 ft | 9 kts | 325° |
| 2026-04-25 16:53 | 53.83380 | -1.20423 | 32 ft | 25 kts | 237° |
| 2026-04-25 16:53 | 53.83249 | -1.20589 | 32 ft | 23 kts | 208° |
| 2026-04-25 16:54 | 53.83092 | -1.20658 | 32 ft | 25 kts | 172° |
| 2026-04-25 16:54 | 53.83065 | -1.20462 | 33 ft | 35 kts | 54° |
| 2026-04-25 16:54 | 53.83291 | -1.19919 | 135 ft | 71 kts | 58° |
| 2026-04-25 16:54 | 53.83613 | -1.19148 | 381 ft | 85 kts | 53° |
| 2026-04-25 16:55 | 53.83970 | -1.18345 | 733 ft | 87 kts | 50° |
| 2026-04-25 16:55 | 53.84387 | -1.17595 | 1101 ft | 88 kts | 44° |
| 2026-04-25 16:55 | 53.84855 | -1.16965 | 1505 ft | 87 kts | 37° |
| 2026-04-25 16:55 | 53.85394 | -1.16427 | 1780 ft | 96 kts | 30° |
| 2026-04-25 16:56 | 53.86031 | -1.15952 | 2082 ft | 101 kts | 7° |
| 2026-04-25 16:56 | 53.86592 | -1.16527 | 2453 ft | 96 kts | 320° |
| 2026-04-25 16:56 | 53.87226 | -1.16915 | 2728 ft | 99 kts | 338° |
| 2026-04-25 16:56 | 53.87897 | -1.17206 | 3050 ft | 100 kts | 346° |
| 2026-04-25 16:57 | 53.88574 | -1.17473 | 3381 ft | 99 kts | 341° |
| 2026-04-25 16:57 | 53.89016 | -1.17655 | 3576 ft | 100 kts | 337° |
| 2026-04-25 16:57 | 53.89938 | -1.18101 | 3919 ft | 105 kts | 338° |
| 2026-04-25 16:57 | 53.90644 | -1.18403 | 4179 ft | 105 kts | 341° |
| 2026-04-25 16:58 | 53.91349 | -1.18706 | 4427 ft | 104 kts | 340° |
| 2026-04-25 16:58 | 53.92045 | -1.19007 | 4690 ft | 103 kts | 340° |
| 2026-04-25 16:58 | 53.92742 | -1.19312 | 4944 ft | 105 kts | 339° |
| 2026-04-25 16:58 | 53.93456 | -1.19621 | 5197 ft | 107 kts | 341° |
| 2026-04-25 16:59 | 53.94180 | -1.19936 | 5454 ft | 108 kts | 340° |
| 2026-04-25 16:59 | 53.94902 | -1.20246 | 5707 ft | 106 kts | 341° |
| 2026-04-25 16:59 | 53.95619 | -1.20561 | 5973 ft | 106 kts | 341° |
| 2026-04-25 16:59 | 53.96324 | -1.20868 | 6214 ft | 103 kts | 342° |
| 2026-04-25 17:00 | 53.97049 | -1.21187 | 6335 ft | 116 kts | 343° |
| 2026-04-25 17:00 | 53.97874 | -1.21544 | 6349 ft | 128 kts | 344° |
| 2026-04-25 17:00 | 53.98752 | -1.21925 | 6354 ft | 132 kts | 343° |
| 2026-04-25 17:00 | 53.99651 | -1.22316 | 6351 ft | 133 kts | 343° |
| 2026-04-25 17:01 | 54.00539 | -1.22703 | 6347 ft | 131 kts | 343° |
| 2026-04-25 17:01 | 54.01414 | -1.23085 | 6347 ft | 129 kts | 343° |
| 2026-04-25 17:01 | 54.02274 | -1.23460 | 6342 ft | 128 kts | 344° |
| 2026-04-25 17:01 | 54.03134 | -1.23836 | 6344 ft | 128 kts | 343° |
| 2026-04-25 17:02 | 54.04000 | -1.24215 | 6347 ft | 130 kts | 344° |
| 2026-04-25 17:02 | 54.04885 | -1.24602 | 6350 ft | 131 kts | 343° |
| 2026-04-25 17:02 | 54.05765 | -1.24987 | 6348 ft | 130 kts | 344° |
| 2026-04-25 17:02 | 54.06347 | -1.25242 | 6348 ft | 131 kts | 343° |
| 2026-04-25 17:03 | 54.07515 | -1.25753 | 6349 ft | 129 kts | 343° |
| 2026-04-25 17:03 | 54.08367 | -1.26127 | 6355 ft | 129 kts | 344° |
| 2026-04-25 17:03 | 54.09235 | -1.26507 | 6349 ft | 129 kts | 344° |
| 2026-04-25 17:03 | 54.10104 | -1.26888 | 6346 ft | 130 kts | 344° |
| 2026-04-25 17:04 | 54.10983 | -1.27274 | 6344 ft | 130 kts | 344° |
| 2026-04-25 17:04 | 54.11850 | -1.27654 | 6348 ft | 128 kts | 343° |
| 2026-04-25 17:04 | 54.12710 | -1.28031 | 6349 ft | 127 kts | 343° |
| 2026-04-25 17:04 | 54.13562 | -1.28405 | 6346 ft | 127 kts | 343° |
| 2026-04-25 17:05 | 54.14422 | -1.28784 | 6357 ft | 128 kts | 343° |
| 2026-04-25 17:05 | 54.16150 | -1.29544 | 6358 ft | 129 kts | 344° |
| 2026-04-25 17:05 | 54.17018 | -1.29925 | 6366 ft | 128 kts | 343° |
| 2026-04-25 17:06 | 54.17884 | -1.30307 | 6360 ft | 128 kts | 343° |
| 2026-04-25 17:06 | 54.18744 | -1.30686 | 6361 ft | 126 kts | 343° |
| 2026-04-25 17:06 | 54.19593 | -1.31059 | 6359 ft | 127 kts | 344° |
| 2026-04-25 17:06 | 54.20447 | -1.31436 | 6364 ft | 127 kts | 343° |
| 2026-04-25 17:07 | 54.21306 | -1.31815 | 6358 ft | 128 kts | 344° |
| 2026-04-25 17:07 | 54.22171 | -1.32197 | 6357 ft | 129 kts | 344° |
| 2026-04-25 17:07 | 54.23036 | -1.32578 | 6366 ft | 128 kts | 344° |
| 2026-04-25 17:07 | 54.23904 | -1.32961 | 6372 ft | 128 kts | 343° |
| 2026-04-25 17:08 | 54.24774 | -1.33346 | 6363 ft | 129 kts | 342° |
| 2026-04-25 17:08 | 54.25645 | -1.33731 | 6363 ft | 130 kts | 342° |
| 2026-04-25 17:08 | 54.26523 | -1.34119 | 6371 ft | 130 kts | 342° |
| 2026-04-25 17:08 | 54.27399 | -1.34506 | 6361 ft | 130 kts | 343° |
| 2026-04-25 17:09 | 54.28272 | -1.34892 | 6366 ft | 129 kts | 343° |
| 2026-04-25 17:09 | 54.29141 | -1.35278 | 6361 ft | 129 kts | 343° |
| 2026-04-25 17:09 | 54.30015 | -1.35665 | 6367 ft | 131 kts | 343° |
| 2026-04-25 17:09 | 54.30893 | -1.36053 | 6378 ft | 130 kts | 343° |
| 2026-04-25 17:10 | 54.31766 | -1.36440 | 6363 ft | 130 kts | 343° |
| 2026-04-25 17:10 | 54.32640 | -1.36828 | 6368 ft | 130 kts | 343° |
| 2026-04-25 17:10 | 54.33515 | -1.37216 | 6361 ft | 130 kts | 343° |
| 2026-04-25 17:10 | 54.34389 | -1.37604 | 6365 ft | 130 kts | 343° |
| 2026-04-25 17:11 | 54.35265 | -1.37993 | 6364 ft | 130 kts | 343° |
| 2026-04-25 17:11 | 54.36143 | -1.38382 | 6365 ft | 130 kts | 343° |
| 2026-04-25 17:11 | 54.37021 | -1.38773 | 6374 ft | 131 kts | 343° |
| 2026-04-25 17:11 | 54.37899 | -1.39164 | 6362 ft | 130 kts | 343° |
| 2026-04-25 17:12 | 54.38771 | -1.39552 | 6396 ft | 130 kts | 343° |
| 2026-04-25 17:12 | 54.39646 | -1.39941 | 6389 ft | 130 kts | 343° |
| 2026-04-25 17:12 | 54.40524 | -1.40333 | 6392 ft | 131 kts | 343° |
| 2026-04-25 17:12 | 54.41404 | -1.40724 | 6390 ft | 130 kts | 343° |
| 2026-04-25 17:13 | 54.42282 | -1.41115 | 6392 ft | 131 kts | 342° |
| 2026-04-25 17:13 | 54.42580 | -1.41248 | 6391 ft | 131 kts | 342° |
| 2026-04-25 17:13 | 54.44041 | -1.41900 | 6391 ft | 130 kts | 343° |
| 2026-04-25 17:13 | 54.44920 | -1.42292 | 6389 ft | 130 kts | 343° |
| 2026-04-25 17:14 | 54.45797 | -1.42683 | 6396 ft | 130 kts | 343° |
| 2026-04-25 17:14 | 54.46675 | -1.43075 | 6391 ft | 131 kts | 343° |
| 2026-04-25 17:14 | 54.47556 | -1.43469 | 6391 ft | 131 kts | 343° |
| 2026-04-25 17:14 | 54.48436 | -1.43862 | 6400 ft | 130 kts | 342° |
| 2026-04-25 17:15 | 54.49312 | -1.44254 | 6391 ft | 130 kts | 342° |
| 2026-04-25 17:15 | 54.50187 | -1.44646 | 6391 ft | 130 kts | 342° |
| 2026-04-25 17:15 | 54.51059 | -1.45036 | 6390 ft | 130 kts | 342° |
| 2026-04-25 17:15 | 54.51931 | -1.45427 | 6396 ft | 129 kts | 342° |
| 2026-04-25 17:16 | 54.52803 | -1.45817 | 6389 ft | 130 kts | 342° |
| 2026-04-25 17:16 | 54.53675 | -1.46208 | 6395 ft | 129 kts | 342° |
| 2026-04-25 17:16 | 54.54543 | -1.46596 | 6390 ft | 129 kts | 342° |
| 2026-04-25 17:16 | 54.55412 | -1.46986 | 6394 ft | 129 kts | 341° |
| 2026-04-25 17:17 | 54.56282 | -1.47378 | 6389 ft | 130 kts | 342° |
| 2026-04-25 17:17 | 54.57155 | -1.47770 | 6392 ft | 129 kts | 342° |
| 2026-04-25 17:17 | 54.57978 | -1.48138 | 6381 ft | 122 kts | 341° |
| 2026-04-25 17:17 | 54.58823 | -1.48520 | 6380 ft | 128 kts | 342° |
| 2026-04-25 17:18 | 54.59696 | -1.48913 | 6389 ft | 131 kts | 342° |
| 2026-04-25 17:18 | 54.60585 | -1.49312 | 6391 ft | 133 kts | 342° |
| 2026-04-25 17:18 | 54.61487 | -1.49718 | 6394 ft | 135 kts | 342° |
| 2026-04-25 17:18 | 54.62396 | -1.50126 | 6391 ft | 135 kts | 342° |
| 2026-04-25 17:19 | 54.63303 | -1.50533 | 6391 ft | 135 kts | 341° |
| 2026-04-25 17:19 | 54.64210 | -1.50943 | 6389 ft | 135 kts | 342° |
| 2026-04-25 17:19 | 54.65119 | -1.51353 | 6390 ft | 135 kts | 341° |
| 2026-04-25 17:19 | 54.66012 | -1.51747 | 6428 ft | 133 kts | 343° |
| 2026-04-25 17:20 | 54.66921 | -1.52109 | 6414 ft | 135 kts | 343° |
| 2026-04-25 17:20 | 54.67846 | -1.52420 | 6427 ft | 136 kts | 348° |
| 2026-04-25 17:20 | 54.68793 | -1.52561 | 6434 ft | 137 kts | 353° |
| 2026-04-25 17:20 | 54.69745 | -1.52581 | 6459 ft | 137 kts | 356° |
| 2026-04-25 17:21 | 54.70695 | -1.52511 | 6469 ft | 137 kts | 359° |
| 2026-04-25 17:21 | 54.71648 | -1.52347 | 6465 ft | 139 kts | 4° |
| 2026-04-25 17:21 | 54.72609 | -1.52075 | 6444 ft | 141 kts | 5° |
| 2026-04-25 17:21 | 54.73578 | -1.51801 | 6413 ft | 142 kts | 5° |
| 2026-04-25 17:22 | 54.74553 | -1.51526 | 6392 ft | 142 kts | 6° |
| 2026-04-25 17:22 | 54.75194 | -1.51371 | 6391 ft | 140 kts | 358° |
| 2026-04-25 17:22 | 54.76414 | -1.51920 | 6382 ft | 135 kts | 337° |
| 2026-04-25 17:22 | 54.77299 | -1.52470 | 6384 ft | 135 kts | 338° |
| 2026-04-25 17:23 | 54.78185 | -1.53016 | 6384 ft | 135 kts | 338° |
| 2026-04-25 17:23 | 54.79072 | -1.53564 | 6385 ft | 135 kts | 338° |
| 2026-04-25 17:23 | 54.79960 | -1.54114 | 6384 ft | 136 kts | 337° |
| 2026-04-25 17:23 | 54.80848 | -1.54664 | 6384 ft | 136 kts | 337° |
| 2026-04-25 17:24 | 54.81738 | -1.55216 | 6389 ft | 136 kts | 338° |
| 2026-04-25 17:24 | 54.82633 | -1.55770 | 6386 ft | 136 kts | 338° |
| 2026-04-25 17:24 | 54.83525 | -1.56323 | 6386 ft | 136 kts | 337° |
| 2026-04-25 17:24 | 54.84204 | -1.56745 | 6386 ft | 136 kts | 337° |
| 2026-04-25 17:25 | 54.84699 | -1.57052 | 6406 ft | 136 kts | 337° |
| 2026-04-25 17:26 | 54.85567 | -1.57589 | 6401 ft | 129 kts | 337° |
| 2026-04-25 17:26 | 54.86396 | -1.58104 | 6394 ft | 124 kts | 337° |
| 2026-04-25 17:26 | 54.86614 | -1.58239 | 6394 ft | 124 kts | 337° |
| 2026-04-25 17:26 | 54.86792 | -1.58350 | 6394 ft | 123 kts | 337° |
| 2026-04-25 17:27 | 54.87589 | -1.58847 | 6397 ft | 121 kts | 337° |
| 2026-04-25 17:27 | 54.88372 | -1.59342 | 6398 ft | 118 kts | 335° |
| 2026-04-25 17:27 | 54.89139 | -1.59824 | 6399 ft | 117 kts | 338° |
| 2026-04-25 17:27 | 54.89388 | -1.59975 | 6398 ft | 117 kts | 338° |
| 2026-04-25 17:28 | 54.90670 | -1.60768 | 6400 ft | 118 kts | 337° |
| 2026-04-25 17:28 | 54.91453 | -1.61253 | 6400 ft | 118 kts | 337° |
| 2026-04-25 17:28 | 54.92221 | -1.61731 | 6402 ft | 117 kts | 337° |
| 2026-04-25 17:28 | 54.92982 | -1.62205 | 6402 ft | 118 kts | 337° |
| 2026-04-25 17:29 | 54.93752 | -1.62686 | 6403 ft | 118 kts | 337° |
| 2026-04-25 17:29 | 54.94522 | -1.63166 | 6403 ft | 117 kts | 337° |
| 2026-04-25 17:29 | 54.95285 | -1.63642 | 6405 ft | 116 kts | 339° |
| 2026-04-25 17:29 | 54.96044 | -1.64092 | 6403 ft | 114 kts | 340° |
| 2026-04-25 17:30 | 54.96552 | -1.64416 | 6402 ft | 116 kts | 336° |
| 2026-04-25 17:30 | 54.97591 | -1.65083 | 6420 ft | 124 kts | 337° |
| 2026-04-25 17:30 | 54.98413 | -1.65597 | 6422 ft | 127 kts | 338° |
| 2026-04-25 17:30 | 54.99271 | -1.66131 | 6269 ft | 138 kts | 338° |
| 2026-04-25 17:31 | 55.00114 | -1.67010 | 5986 ft | 141 kts | 318° |
| 2026-04-25 17:31 | 55.00791 | -1.68042 | 5673 ft | 120 kts | 317° |
| 2026-04-25 17:31 | 55.01398 | -1.68960 | 5353 ft | 112 kts | 317° |
| 2026-04-25 17:31 | 55.01967 | -1.69808 | 5037 ft | 104 kts | 317° |
| 2026-04-25 17:32 | 55.02215 | -1.70891 | 4688 ft | 103 kts | 262° |
| 2026-04-25 17:32 | 55.01862 | -1.71968 | 4368 ft | 106 kts | 227° |
| 2026-04-25 17:32 | 55.01312 | -1.72826 | 4058 ft | 106 kts | 227° |
| 2026-04-25 17:32 | 55.00762 | -1.73672 | 3758 ft | 105 kts | 227° |
| 2026-04-25 17:33 | 55.00227 | -1.74541 | 3455 ft | 105 kts | 228° |
| 2026-04-25 17:33 | 54.99701 | -1.75428 | 3145 ft | 106 kts | 227° |
| 2026-04-25 17:33 | 54.99202 | -1.76387 | 2837 ft | 106 kts | 239° |
| 2026-04-25 17:33 | 54.98839 | -1.77511 | 2522 ft | 107 kts | 242° |
| 2026-04-25 17:34 | 54.98506 | -1.78601 | 2401 ft | 92 kts | 242° |
| 2026-04-25 17:34 | 54.98229 | -1.79525 | 2405 ft | 89 kts | 242° |
| 2026-04-25 17:34 | 54.97915 | -1.80573 | 2424 ft | 105 kts | 242° |
| 2026-04-25 17:34 | 54.97554 | -1.81768 | 2426 ft | 117 kts | 242° |
| 2026-04-25 17:35 | 54.97333 | -1.83074 | 2184 ft | 111 kts | 282° |
| 2026-04-25 17:35 | 54.97598 | -1.84300 | 1930 ft | 106 kts | 293° |
| 2026-04-25 17:35 | 54.97904 | -1.85297 | 1831 ft | 85 kts | 327° |
| 2026-04-25 17:35 | 54.98352 | -1.85876 | 1825 ft | 76 kts | 330° |
| 2026-04-25 17:36 | 54.98752 | -1.86369 | 1882 ft | 66 kts | 342° |
| 2026-04-25 17:36 | 54.99154 | -1.86318 | 1886 ft | 51 kts | 36° |
| 2026-04-25 17:36 | 54.99333 | -1.86032 | 1973 ft | 58 kts | 53° |
| 2026-04-25 17:36 | 54.99644 | -1.85120 | 2214 ft | 73 kts | 68° |
| 2026-04-25 17:37 | 54.99747 | -1.84516 | 2228 ft | 81 kts | 76° |
| 2026-04-25 17:37 | 54.99913 | -1.83503 | 2182 ft | 95 kts | 70° |
| 2026-04-25 17:37 | 55.00210 | -1.82491 | 1894 ft | 93 kts | 62° |
| 2026-04-25 17:37 | 55.00572 | -1.81212 | 1710 ft | 83 kts | 69° |
| 2026-04-25 17:38 | 55.00714 | -1.80595 | 1620 ft | 78 kts | 70° |
| 2026-04-25 17:38 | 55.00844 | -1.80061 | 1597 ft | 70 kts | 64° |
| 2026-04-25 17:38 | 55.01144 | -1.79008 | 1474 ft | 76 kts | 67° |
| 2026-04-25 17:38 | 55.01366 | -1.78144 | 1347 ft | 79 kts | 66° |
| 2026-04-25 17:39 | 55.01581 | -1.77350 | 1206 ft | 68 kts | 64° |
| 2026-04-25 17:39 | 55.01654 | -1.77092 | 1162 ft | 71 kts | 66° |
| 2026-04-25 17:39 | 55.01807 | -1.76471 | 1113 ft | 66 kts | 68° |
| 2026-04-25 17:40 | 55.02003 | -1.75760 | 1057 ft | 69 kts | 70° |
| 2026-04-25 17:40 | 55.02206 | -1.74962 | 915 ft | 77 kts | 65° |
| 2026-04-25 17:40 | 55.02433 | -1.74137 | 792 ft | 71 kts | 67° |
| 2026-04-25 17:40 | 55.02628 | -1.73403 | 723 ft | 68 kts | 64° |
| 2026-04-25 17:41 | 55.02819 | -1.72674 | 616 ft | 62 kts | 68° |
| 2026-04-25 17:41 | 55.02991 | -1.72014 | 512 ft | 60 kts | 67° |
| 2026-04-25 17:41 | 55.03164 | -1.71353 | 443 ft | 60 kts | 66° |
| 2026-04-25 17:41 | 55.03346 | -1.70673 | 339 ft | 61 kts | 64° |
| 2026-04-25 17:42 | 55.03518 | -1.70018 | 269 ft | 56 kts | 65° |
| 2026-04-25 17:42 | 55.03648 | -1.69525 | 265 ft | 34 kts | 66° |
| 2026-04-25 17:42 | 55.03684 | -1.69305 | 261 ft | 9 kts | 125° |
| 2026-04-25 17:42 | 55.03633 | -1.69254 | 260 ft | 14 kts | 155° |
| 2026-04-25 17:43 | 55.03530 | -1.69173 | 256 ft | 12 kts | 166° |
| 2026-04-25 17:43 | 55.03489 | -1.69237 | 256 ft | 8 kts | 246° |
| 2026-04-25 17:43 | 55.03484 | -1.69256 | 256 ft | 0 kts | 245° |